createdAt,value
2022-10-19T00:00:19.486Z,19.91
2022-10-19T00:04:19.590Z,19.82
2022-10-19T00:08:20.122Z,19.85
2022-10-19T00:12:22.762Z,19.95
2022-10-19T00:16:23.692Z,19.93
2022-10-19T00:20:23.835Z,19.82
2022-10-19T00:24:24.532Z,19.54
2022-10-19T00:28:27.409Z,19.78
2022-10-19T00:32:27.531Z,19.74
2022-10-19T00:36:30.668Z,19.65
2022-10-19T00:40:30.998Z,19.59
2022-10-19T00:45:14.142Z,19.57
2022-10-19T00:49:20.459Z,19.58
2022-10-19T00:53:22.762Z,19.42
2022-10-19T00:57:23.739Z,19.40
2022-10-19T01:01:29.994Z,19.42
2022-10-19T01:05:31.683Z,19.22
2022-10-19T01:09:31.871Z,19.21
2022-10-19T01:13:49.348Z,19.26
2022-10-19T01:18:03.721Z,19.31
2022-10-19T01:22:22.344Z,19.29
2022-10-19T01:26:49.741Z,19.31
2022-10-19T01:31:01.494Z,19.22
2022-10-19T01:35:12.165Z,19.19
2022-10-19T01:39:20.477Z,19.20
2022-10-19T01:43:36.258Z,19.32
2022-10-19T01:47:48.782Z,19.35
2022-10-19T01:51:54.784Z,19.44
2022-10-19T01:55:57.938Z,19.37
2022-10-19T02:00:07.291Z,19.32
2022-10-19T02:04:18.501Z,19.35
2022-10-19T02:08:34.317Z,19.19
2022-10-19T02:12:36.600Z,19.26
2022-10-19T02:16:47.598Z,19.28
2022-10-19T02:20:50.772Z,18.77
2022-10-19T02:24:50.961Z,19.05
2022-10-19T02:28:52.248Z,18.87
2022-10-19T02:32:53.875Z,19.02
2022-10-19T02:36:57.271Z,19.18
2022-10-19T02:41:09.201Z,19.03
2022-10-19T02:45:16.020Z,18.99
2022-10-19T02:49:18.151Z,19.01
2022-10-19T02:53:21.431Z,19.04
2022-10-19T02:57:25.683Z,18.70
2022-10-19T03:01:25.813Z,18.57
2022-10-19T03:05:25.974Z,18.91
2022-10-19T03:09:28.680Z,19.16
2022-10-19T03:13:28.841Z,18.42
2022-10-19T03:17:29.047Z,18.67
2022-10-19T03:21:29.157Z,18.30
2022-10-19T03:25:31.879Z,18.43
2022-10-19T03:29:32.050Z,18.45
2022-10-19T03:33:32.091Z,18.16
2022-10-19T03:37:32.408Z,18.42
2022-10-19T03:41:40.343Z,18.11
2022-10-19T03:45:40.439Z,17.78
2022-10-19T03:49:40.608Z,17.85
2022-10-19T03:53:41.917Z,18.14
2022-10-19T03:57:44.774Z,18.01
2022-10-19T04:01:47.700Z,17.84
2022-10-19T04:05:47.727Z,18.23
2022-10-19T04:09:47.823Z,18.59
2022-10-19T04:13:52.179Z,18.66
2022-10-19T04:17:52.198Z,18.81
2022-10-19T04:21:52.605Z,18.68
2022-10-19T04:25:52.864Z,18.65
2022-10-19T04:29:55.505Z,18.37
2022-10-19T04:33:55.581Z,18.16
2022-10-19T04:37:55.669Z,18.20
2022-10-19T04:41:55.757Z,18.18
2022-10-19T04:45:58.438Z,18.34
2022-10-19T04:49:58.569Z,18.34
2022-10-19T04:53:59.824Z,18.22
2022-10-19T04:58:00.328Z,18.20
2022-10-19T05:02:03.006Z,18.35
2022-10-19T05:06:03.144Z,18.48
2022-10-19T05:10:03.244Z,18.34
2022-10-19T05:14:03.285Z,18.54
2022-10-19T05:18:06.437Z,18.73
2022-10-19T05:22:06.614Z,18.62
2022-10-19T05:26:11.203Z,18.55
2022-10-19T05:30:14.546Z,18.42
2022-10-19T05:34:17.831Z,18.47
2022-10-19T05:38:18.772Z,18.48
2022-10-19T05:42:19.373Z,18.47
2022-10-19T05:46:20.322Z,18.65
2022-10-19T05:50:23.214Z,18.55
2022-10-19T05:54:26.369Z,18.50
2022-10-19T05:58:28.980Z,18.54
2022-10-19T06:02:32.161Z,18.49
2022-10-19T06:06:35.020Z,18.48
2022-10-19T06:10:35.131Z,18.63
2022-10-19T06:14:35.317Z,18.67
2022-10-19T06:18:38.531Z,18.30
2022-10-19T06:22:42.556Z,18.73
2022-10-19T06:26:45.769Z,18.95
2022-10-19T06:30:46.143Z,18.91
2022-10-19T06:34:56.393Z,18.99
2022-10-19T06:39:01.719Z,19.05
2022-10-19T06:43:02.077Z,19.18
2022-10-19T06:47:03.381Z,19.21
2022-10-19T06:51:06.742Z,19.18
2022-10-19T06:55:11.242Z,19.39
2022-10-19T06:59:15.180Z,19.44
2022-10-19T07:03:15.376Z,19.55
2022-10-19T07:07:15.519Z,19.71
2022-10-19T07:11:22.612Z,19.62
2022-10-19T07:15:22.784Z,19.74
2022-10-19T07:19:22.896Z,19.64
2022-10-19T07:23:23.024Z,19.52
2022-10-19T07:27:25.743Z,19.84
2022-10-19T07:31:28.064Z,19.92
2022-10-19T07:35:28.333Z,20.02
2022-10-19T07:39:28.493Z,19.97
2022-10-19T07:43:31.188Z,20.18
2022-10-19T07:47:31.477Z,19.87
2022-10-19T07:51:31.787Z,20.19
2022-10-19T07:55:31.893Z,20.34
2022-10-19T07:59:34.722Z,20.64
2022-10-19T08:07:56.029Z,20.20
2022-10-19T08:11:56.200Z,20.36
2022-10-19T08:15:59.208Z,20.23
2022-10-19T08:19:59.283Z,20.56
2022-10-19T08:23:59.762Z,20.52
2022-10-19T08:27:59.908Z,20.73
2022-10-19T08:32:03.047Z,20.79
2022-10-19T08:36:03.158Z,20.92
2022-10-19T08:40:06.355Z,20.95
2022-10-19T08:44:39.212Z,21.19
2022-10-19T08:48:43.730Z,21.23
2022-10-19T08:52:49.008Z,21.13
2022-10-19T08:57:04.885Z,21.56
2022-10-19T09:01:14.487Z,21.66
2022-10-19T09:05:26.052Z,21.65
2022-10-19T09:09:27.189Z,22.04
2022-10-19T09:14:03.710Z,22.11
2022-10-19T09:18:01.669Z,22.24
2022-10-19T09:22:17.943Z,22.60
2022-10-19T09:26:21.157Z,22.67
2022-10-19T09:30:25.579Z,23.16
2022-10-19T09:34:33.058Z,23.61
2022-10-19T09:38:55.832Z,23.68
2022-10-19T09:43:03.311Z,23.71
2022-10-19T09:47:28.305Z,23.83
2022-10-19T09:51:28.481Z,24.07
2022-10-19T09:55:42.098Z,24.18
2022-10-19T09:59:42.235Z,24.31
2022-10-19T10:03:43.800Z,24.18
2022-10-19T10:07:45.003Z,24.68
2022-10-19T10:11:52.561Z,25.58
2022-10-19T10:15:59.291Z,26.28
2022-10-19T10:20:23.502Z,26.58
2022-10-19T10:24:26.000Z,26.20
2022-10-19T10:28:31.244Z,25.89
2022-10-19T10:32:32.952Z,25.47
2022-10-19T10:36:35.007Z,25.03
2022-10-19T10:40:35.428Z,24.77
2022-10-19T10:44:39.281Z,24.78
2022-10-19T10:48:44.890Z,24.92
2022-10-19T10:53:00.941Z,25.07
2022-10-19T10:57:16.673Z,24.86
2022-10-19T11:01:25.709Z,25.37
2022-10-19T11:05:29.962Z,24.71
2022-10-19T11:09:39.360Z,25.06
2022-10-19T11:13:51.586Z,25.55
2022-10-19T11:18:18.479Z,23.58
2022-10-19T11:22:30.655Z,23.71
2022-10-19T11:26:51.699Z,24.30
2022-10-19T11:31:04.250Z,24.58
2022-10-19T11:35:29.351Z,24.88
2022-10-19T11:39:50.984Z,25.27
2022-10-19T11:44:23.522Z,26.67
2022-10-19T11:48:54.798Z,29.50
2022-10-19T11:53:08.832Z,30.52
2022-10-19T11:57:25.681Z,32.13
2022-10-19T12:01:47.539Z,32.95
2022-10-19T12:06:17.308Z,32.26
2022-10-19T12:10:35.424Z,32.06
2022-10-19T12:14:40.016Z,31.89
2022-10-19T12:18:46.045Z,30.36
2022-10-19T12:22:46.677Z,29.12
2022-10-19T12:26:53.142Z,28.58
2022-10-19T12:30:55.072Z,29.60
2022-10-19T12:35:03.494Z,30.91
2022-10-19T12:39:16.075Z,31.88
2022-10-19T12:43:27.923Z,32.55
2022-10-19T12:47:29.231Z,33.15
2022-10-19T12:51:29.484Z,33.36
2022-10-19T12:55:35.052Z,33.11
2022-10-19T12:59:40.697Z,32.80
2022-10-19T13:03:45.284Z,32.25
2022-10-19T13:07:45.417Z,32.97
2022-10-19T13:12:43.246Z,33.11
2022-10-19T13:17:04.515Z,33.53
2022-10-19T13:21:04.752Z,32.60
2022-10-19T13:25:30.407Z,32.04
2022-10-19T13:29:44.798Z,31.91
2022-10-19T13:33:53.917Z,31.66
2022-10-19T13:38:27.006Z,32.38
2022-10-19T13:42:30.982Z,32.15
2022-10-19T13:46:55.339Z,32.21
2022-10-19T13:51:12.181Z,32.33
2022-10-19T13:55:43.032Z,30.81
2022-10-19T14:00:14.886Z,30.79
2022-10-19T14:04:33.014Z,30.96
2022-10-19T14:09:38.078Z,31.45
2022-10-19T14:13:40.859Z,30.87
2022-10-19T14:17:45.136Z,30.96
2022-10-19T14:21:45.198Z,30.74
2022-10-19T14:25:54.545Z,30.40
2022-10-19T14:29:58.030Z,29.11
2022-10-19T14:34:06.331Z,27.61
2022-10-19T14:38:09.074Z,27.19
2022-10-19T14:42:13.345Z,27.68
2022-10-19T14:46:18.965Z,26.74
2022-10-19T14:50:20.298Z,27.39
2022-10-19T14:54:31.212Z,27.50
2022-10-19T14:58:44.566Z,27.35
2022-10-19T15:02:53.747Z,27.12
2022-10-19T15:06:54.611Z,25.74
2022-10-19T15:10:55.755Z,25.94
2022-10-19T15:14:57.012Z,26.19
2022-10-19T15:23:43.517Z,24.93
2022-10-19T15:27:52.322Z,25.13
2022-10-19T15:31:56.449Z,25.27
2022-10-19T15:36:17.097Z,24.72
2022-10-19T15:40:30.735Z,23.99
2022-10-19T15:44:36.915Z,24.18
2022-10-19T15:48:52.345Z,23.84
2022-10-19T15:52:57.852Z,23.18
2022-10-19T15:56:58.099Z,22.70
2022-10-19T16:00:58.158Z,22.58
2022-10-19T16:04:58.739Z,22.16
2022-10-19T16:09:01.936Z,21.57
2022-10-19T16:13:02.122Z,21.39
2022-10-19T16:17:02.226Z,20.94
2022-10-19T16:21:02.947Z,20.55
2022-10-19T16:25:05.834Z,20.27
2022-10-19T16:29:06.342Z,19.84
2022-10-19T16:33:06.919Z,19.75
2022-10-19T16:37:07.493Z,19.57
2022-10-19T16:41:13.705Z,19.30
2022-10-19T16:45:14.730Z,19.02
2022-10-19T16:49:16.276Z,18.88
2022-10-19T16:53:16.387Z,18.77
2022-10-19T16:57:19.068Z,18.69
2022-10-19T17:01:22.260Z,18.72
2022-10-19T17:05:22.416Z,18.70
2022-10-19T17:09:40.943Z,18.46
2022-10-19T17:13:46.452Z,18.36
2022-10-19T17:17:46.603Z,18.19
2022-10-19T17:21:48.284Z,17.98
2022-10-19T17:25:52.620Z,17.91
2022-10-19T17:29:55.318Z,17.87
2022-10-19T17:33:55.906Z,17.90
2022-10-19T17:37:56.030Z,17.81
2022-10-19T17:41:57.548Z,17.72
2022-10-19T17:46:05.228Z,17.62
2022-10-19T17:50:05.392Z,17.34
2022-10-19T17:54:08.691Z,17.49
2022-10-19T17:58:08.798Z,17.42
2022-10-19T18:02:13.484Z,17.34
2022-10-19T18:06:16.312Z,17.16
2022-10-19T18:10:16.388Z,17.11
2022-10-19T18:14:16.827Z,16.99
2022-10-19T18:18:20.276Z,16.96
2022-10-19T18:22:21.917Z,16.85
2022-10-19T18:26:26.129Z,16.80
2022-10-19T18:30:26.205Z,16.94
2022-10-19T18:34:29.736Z,16.82
2022-10-19T18:38:29.934Z,16.81
2022-10-19T18:42:30.953Z,16.67
2022-10-19T18:46:31.922Z,16.88
2022-10-19T18:50:35.287Z,16.87
2022-10-19T18:54:35.438Z,16.72
2022-10-19T18:58:35.967Z,16.84
2022-10-19T19:02:46.581Z,16.90
2022-10-19T19:06:50.198Z,16.73
2022-10-19T19:10:50.578Z,16.82
2022-10-19T19:14:51.054Z,16.95
2022-10-19T19:18:51.510Z,16.94
2022-10-19T19:22:54.200Z,17.03
2022-10-19T19:26:58.106Z,17.02
2022-10-19T19:30:58.199Z,16.92
2022-10-19T19:34:58.502Z,17.17
2022-10-19T19:39:01.521Z,16.88
2022-10-19T19:43:01.935Z,16.97
2022-10-19T19:47:04.458Z,16.91
2022-10-19T19:51:04.578Z,16.60
2022-10-19T19:55:08.619Z,16.79
2022-10-19T19:59:08.807Z,16.75
2022-10-19T20:03:08.929Z,16.60
2022-10-19T20:07:09.163Z,16.44
2022-10-19T20:11:14.920Z,16.47
2022-10-19T20:15:17.927Z,16.09
2022-10-19T20:19:18.154Z,16.41
2022-10-19T20:23:18.628Z,16.16
2022-10-19T20:27:21.284Z,16.14
2022-10-19T20:31:22.025Z,16.13
2022-10-19T20:35:24.220Z,15.95
2022-10-19T20:39:24.332Z,16.05
2022-10-19T20:43:27.155Z,15.95
2022-10-19T20:47:27.543Z,15.93
2022-10-19T20:51:32.103Z,15.79
2022-10-19T20:55:32.528Z,15.84
2022-10-19T20:59:35.469Z,15.67
2022-10-19T21:03:35.772Z,15.47
2022-10-19T21:07:35.880Z,15.53
2022-10-19T21:11:39.652Z,15.52
2022-10-19T21:15:42.276Z,15.49
2022-10-19T21:19:42.380Z,15.47
2022-10-19T21:23:43.021Z,15.43
2022-10-19T21:27:43.105Z,15.50
2022-10-19T21:31:49.081Z,15.42
2022-10-19T21:39:50.421Z,15.50
2022-10-19T21:43:50.714Z,15.56
2022-10-19T21:47:53.334Z,15.54
2022-10-19T21:51:56.389Z,15.31
2022-10-19T21:56:01.935Z,15.34
2022-10-19T22:00:02.077Z,15.27
2022-10-19T22:04:08.578Z,15.21
2022-10-19T22:08:08.946Z,15.30
2022-10-19T22:12:09.256Z,15.31
2022-10-19T22:16:12.818Z,15.36
2022-10-19T22:20:15.697Z,15.13
2022-10-19T22:24:18.510Z,15.07
2022-10-19T22:28:18.552Z,14.80
2022-10-19T22:32:18.754Z,14.62
2022-10-19T22:36:21.420Z,14.49
2022-10-19T22:40:21.629Z,14.43
2022-10-19T22:44:21.703Z,14.43
2022-10-19T22:48:22.692Z,14.40
2022-10-19T22:52:25.435Z,14.35
2022-10-19T22:56:25.525Z,14.25
2022-10-19T23:00:25.620Z,14.18
2022-10-19T23:04:25.632Z,14.08
2022-10-19T23:08:28.740Z,14.07
2022-10-19T23:12:28.878Z,13.88
2022-10-19T23:16:29.366Z,13.98
2022-10-19T23:20:29.411Z,13.89
2022-10-19T23:24:32.248Z,13.92
2022-10-19T23:28:33.833Z,13.65
2022-10-19T23:32:33.847Z,13.73
2022-10-19T23:36:33.958Z,13.61
2022-10-19T23:40:36.806Z,13.56
2022-10-19T23:44:36.933Z,13.45
2022-10-19T23:48:37.983Z,13.38
2022-10-19T23:52:38.098Z,13.38
2022-10-19T23:56:40.949Z,13.52
